Time;durP1;ratioP1;P1;durP2;ratioP2;P2;SDS_P1;SDS_P2;PMS_P1;PMS_P2;Temp;Humidity;BMP_temperature;BMP_pressure;BME280_temperature;BME280_humidity;BME280_pressure;Samples;Min_cycle;Max_cycle;Signal;HPM_P1;HPM_P2
2022/09/22 00:01:54;;;;;;;3.58;1.27;;;20.80;72.00;;;;;;5111615;28;20043;-74
2022/09/22 00:04:19;;;;;;;1.98;1.10;;;20.80;71.90;;;;;;5112803;28;20016;-74
2022/09/22 00:06:46;;;;;;;1.80;1.17;;;20.80;72.00;;;;;;5112560;28;20055;-74
2022/09/22 00:09:13;;;;;;;4.07;1.10;;;20.80;71.90;;;;;;5094766;28;20020;-74
2022/09/22 00:11:41;;;;;;;6.07;0.93;;;20.80;72.10;;;;;;5094675;28;20035;-74
2022/09/22 00:14:23;;;;;;;2.80;1.30;;;20.80;72.00;;;;;;5079429;28;20028;-74
2022/09/22 00:16:54;;;;;;;2.67;1.10;;;20.80;72.00;;;;;;5077131;28;20021;-74
2022/09/22 00:19:27;;;;;;;2.28;1.00;;;20.80;72.00;;;;;;5072980;28;20012;-73
2022/09/22 00:21:53;;;;;;;2.53;1.30;;;20.80;71.90;;;;;;5070547;28;20020;-73
2022/09/22 00:24:21;;;;;;;4.10;1.00;;;20.80;71.80;;;;;;5071412;28;20035;-74
2022/09/22 00:26:47;;;;;;;4.65;1.02;;;20.80;72.10;;;;;;5069362;28;20028;-73
2022/09/22 00:29:13;;;;;;;1.25;1.00;;;20.80;71.80;;;;;;5069523;28;20016;-74
2022/09/22 00:31:39;;;;;;;1.60;1.02;;;20.80;71.80;;;;;;5070923;28;20029;-74
2022/09/22 00:34:06;;;;;;;2.20;1.10;;;20.80;71.80;;;;;;5069038;28;20034;-74
2022/09/22 00:36:31;;;;;;;2.67;1.00;;;20.80;71.90;;;;;;5072181;28;20112;-73
2022/09/22 00:38:57;;;;;;;5.13;1.00;;;20.80;71.90;;;;;;5073357;28;20091;-73
2022/09/22 00:41:26;;;;;;;1.92;0.80;;;20.80;71.90;;;;;;5073172;28;20029;-73
2022/09/22 00:44:20;;;;;;;1.52;1.00;;;20.80;71.90;;;;;;5073151;28;20048;-74
2022/09/22 00:46:48;;;;;;;3.28;1.02;;;20.80;71.80;;;;;;5091548;28;20028;-74
2022/09/22 00:49:14;;;;;;;4.95;1.20;;;20.80;72.00;;;;;;5080938;28;20076;-74
2022/09/22 00:51:41;;;;;;;2.08;1.00;;;20.80;72.00;;;;;;5073231;28;20154;-73
2022/09/22 00:54:12;;;;;;;1.55;1.33;;;20.70;72.00;;;;;;5075206;28;20044;-74
2022/09/22 00:57:01;;;;;;;1.75;0.82;;;20.70;72.00;;;;;;5074834;28;20078;-74
2022/09/22 00:59:26;;;;;;;2.97;0.90;;;20.70;72.00;;;;;;5092490;28;20077;-73
2022/09/22 01:01:52;;;;;;;4.15;0.98;;;20.70;72.00;;;;;;5092810;28;20020;-74
2022/09/22 01:04:17;;;;;;;1.75;1.20;;;20.70;72.10;;;;;;5092914;28;20024;-73
2022/09/22 01:06:43;;;;;;;1.17;0.90;;;20.80;72.20;;;;;;5092597;28;20100;-73
2022/09/22 01:09:09;;;;;;;1.80;0.90;;;20.70;72.10;;;;;;5092887;28;20439;-73
2022/09/22 01:11:36;;;;;;;1.85;1.00;;;20.70;72.20;;;;;;5092829;28;20062;-73
2022/09/22 01:14:20;;;;;;;2.17;1.02;;;20.70;72.20;;;;;;5076213;28;20024;-73
2022/09/22 01:16:54;;;;;;;1.90;1.00;;;20.70;72.20;;;;;;5092628;28;20097;-74
2022/09/22 01:20:17;;;;;;;3.25;1.20;;;20.70;72.20;;;;;;5092661;28;20028;-74
2022/09/22 01:22:49;;;;;;;1.75;0.93;;;20.70;72.10;;;;;;5031046;28;20033;-73
2022/09/22 01:25:48;;;;;;;3.20;1.27;;;20.70;72.20;;;;;;5031453;28;20079;-73
2022/09/22 01:28:47;;;;;;;3.40;1.10;;;20.70;72.20;;;;;;5031200;28;20475;-74
2022/09/22 01:31:39;;;;;;;2.00;0.95;;;20.70;72.20;;;;;;5031267;28;20137;-74
2022/09/22 01:34:10;;;;;;;2.65;1.30;;;20.70;72.30;;;;;;5006446;28;20034;-74
2022/09/22 01:37:03;;;;;;;1.00;0.90;;;20.70;72.40;;;;;;4995186;28;20433;-74
2022/09/22 01:39:43;;;;;;;2.90;1.00;;;20.60;72.20;;;;;;4955382;28;20122;-73
2022/09/22 01:42:23;;;;;;;3.33;0.88;;;20.70;72.40;;;;;;4970546;28;20491;-73
2022/09/22 01:44:52;;;;;;;1.48;1.20;;;20.70;72.40;;;;;;4970241;28;20038;-74
2022/09/22 01:47:23;;;;;;;3.03;1.10;;;20.70;72.40;;;;;;4971591;28;20040;-73
2022/09/22 01:49:52;;;;;;;5.20;0.98;;;20.70;72.50;;;;;;4971312;28;20116;-74
2022/09/22 01:52:24;;;;;;;2.83;1.10;;;20.70;72.50;;;;;;4982989;28;20039;-73
2022/09/22 01:54:56;;;;;;;3.17;1.10;;;20.70;72.50;;;;;;5035194;28;20025;-73
2022/09/22 01:57:24;;;;;;;;;;;20.70;72.50;;;;;;5034635;28;20037;-73
2022/09/22 01:59:52;;;;;;;1.42;1.10;;;20.70;72.30;;;;;;5033818;28;19950;-73
2022/09/22 02:02:24;;;;;;;0.80;0.80;;;20.70;72.50;;;;;;5033793;28;20585;-72
2022/09/22 02:04:53;;;;;;;1.63;0.90;;;20.60;71.40;;;;;;5032146;28;20021;-73
2022/09/22 02:07:23;;;;;;;1.38;0.90;;;20.60;70.50;;;;;;5034119;28;20033;-73
2022/09/22 02:09:49;;;;;;;1.67;0.85;;;20.60;69.90;;;;;;5033817;28;20067;-74
2022/09/22 02:12:17;;;;;;;1.02;0.90;;;20.60;70.40;;;;;;5033812;28;20166;-74
2022/09/22 02:14:44;;;;;;;1.77;1.00;;;20.60;70.50;;;;;;5034265;28;20029;-74
2022/09/22 02:17:10;;;;;;;1.33;1.00;;;20.60;70.80;;;;;;5063092;28;20124;-74
2022/09/22 02:19:36;;;;;;;3.97;0.90;;;20.60;70.90;;;;;;5071476;28;20450;-74
2022/09/22 02:22:03;;;;;;;3.05;0.77;;;20.60;70.90;;;;;;5071286;28;20074;-74
2022/09/22 02:24:37;;;;;;;1.65;1.20;;;20.60;71.00;;;;;;5074094;28;20085;-74
2022/09/22 02:27:14;;;;;;;3.90;1.15;;;20.60;71.10;;;;;;5071276;28;20021;-74
2022/09/22 02:29:42;;;;;;;4.30;0.90;;;20.60;71.10;;;;;;5071604;28;20027;-74
2022/09/22 02:32:10;;;;;;;2.70;1.05;;;20.60;71.20;;;;;;5070926;28;20025;-73
2022/09/22 02:34:36;;;;;;;1.33;0.98;;;20.60;71.20;;;;;;5071180;28;20020;-73
2022/09/22 02:37:28;;;;;;;5.20;0.80;;;20.60;71.20;;;;;;5070877;28;20070;-73
2022/09/22 02:39:54;;;;;;;2.87;1.10;;;20.60;71.30;;;;;;5082563;28;20036;-74
2022/09/22 02:42:45;;;;;;;1.95;0.93;;;20.60;71.40;;;;;;5092237;28;20314;-73
2022/09/22 02:45:11;;;;;;;2.17;1.00;;;20.50;71.30;;;;;;5076412;28;20017;-74
2022/09/22 02:48:08;;;;;;;1.75;0.93;;;20.50;71.50;;;;;;5092324;28;20038;-73
2022/09/22 02:50:34;;;;;;;4.18;1.00;;;20.60;71.50;;;;;;5091895;28;20044;-73
2022/09/22 02:53:02;;;;;;;1.88;0.80;;;20.50;71.50;;;;;;5090750;28;20066;-73
2022/09/22 02:55:27;;;;;;;1.42;0.80;;;20.50;71.50;;;;;;5093017;28;20486;-74
2022/09/22 02:57:53;;;;;;;1.33;0.90;;;20.50;71.50;;;;;;5091696;28;20083;-74
2022/09/22 03:00:19;;;;;;;1.40;0.90;;;20.50;71.60;;;;;;5093366;28;20020;-74
2022/09/22 03:02:44;;;;;;;1.95;0.80;;;20.50;71.60;;;;;;5075368;28;20112;-73
2022/09/22 03:05:10;;;;;;;2.22;0.90;;;20.50;71.60;;;;;;5092301;28;20027;-73
2022/09/22 03:07:36;;;;;;;1.98;0.90;;;20.50;71.70;;;;;;5092301;28;20027;-73
2022/09/22 03:10:01;;;;;;;1.33;1.05;;;20.50;71.70;;;;;;5093230;28;20051;-74
2022/09/22 03:12:27;;;;;;;3.28;1.08;;;20.50;71.70;;;;;;5093411;28;20024;-74
2022/09/22 03:14:53;;;;;;;1.40;0.80;;;20.50;71.70;;;;;;5090819;28;20020;-73
2022/09/22 03:17:18;;;;;;;0.77;0.77;;;20.50;71.80;;;;;;5072927;28;20111;-73
2022/09/22 03:19:44;;;;;;;1.67;1.00;;;20.50;71.80;;;;;;5073065;28;20366;-73
2022/09/22 03:22:09;;;;;;;0.90;0.70;;;20.50;71.80;;;;;;5073384;28;20025;-74
2022/09/22 03:24:35;;;;;;;0.95;0.75;;;20.50;71.80;;;;;;5113490;28;20031;-74
2022/09/22 03:27:01;;;;;;;2.60;0.95;;;20.50;71.80;;;;;;5113201;28;20059;-74
2022/09/22 03:29:26;;;;;;;2.95;0.88;;;20.50;71.90;;;;;;5113380;28;20027;-74
2022/09/22 03:31:52;;;;;;;1.27;0.98;;;20.50;71.90;;;;;;5113167;28;20081;-74
2022/09/22 03:34:17;;;;;;;1.63;0.90;;;20.50;72.00;;;;;;5111988;28;20108;-74
2022/09/22 03:36:43;;;;;;;2.35;1.13;;;20.50;72.00;;;;;;5113194;28;20090;-74
2022/09/22 03:39:09;;;;;;;1.52;0.73;;;20.50;72.00;;;;;;5113053;28;20766;-74
2022/09/22 03:41:34;;;;;;;1.48;0.60;;;20.50;72.00;;;;;;5113171;28;20086;-74
2022/09/22 03:44:00;;;;;;;1.30;1.02;;;20.50;72.00;;;;;;5112816;28;20023;-74
2022/09/22 03:46:26;;;;;;;1.30;0.80;;;20.50;71.90;;;;;;5113117;28;20018;-74
2022/09/22 03:48:51;;;;;;;0.80;0.80;;;20.50;72.00;;;;;;5112954;28;20483;-74
2022/09/22 03:51:18;;;;;;;1.58;0.80;;;20.50;72.00;;;;;;5112901;28;20047;-74
2022/09/22 03:53:45;;;;;;;2.53;0.88;;;20.50;72.00;;;;;;5112925;28;20071;-74
2022/09/22 03:56:14;;;;;;;0.80;0.80;;;20.50;72.00;;;;;;5111962;28;20451;-74
2022/09/22 03:58:40;;;;;;;3.67;1.00;;;20.40;72.00;;;;;;5111451;28;20104;-74
2022/09/22 04:01:06;;;;;;;4.50;1.02;;;20.40;72.00;;;;;;5111395;28;20483;-74
2022/09/22 04:03:32;;;;;;;1.58;0.75;;;20.40;72.10;;;;;;5111691;28;20525;-74
2022/09/22 04:05:58;;;;;;;2.17;0.80;;;20.50;72.00;;;;;;5111517;28;20068;-74
2022/09/22 04:08:23;;;;;;;1.38;0.82;;;20.40;72.00;;;;;;5112762;28;20035;-74
2022/09/22 04:10:49;;;;;;;2.53;1.02;;;20.40;72.10;;;;;;5111735;28;20024;-74
2022/09/22 04:13:15;;;;;;;0.82;0.80;;;20.40;72.10;;;;;;5112501;28;20059;-74
2022/09/22 04:15:40;;;;;;;1.50;0.90;;;20.40;72.10;;;;;;5097447;28;20024;-74
2022/09/22 04:18:06;;;;;;;0.82;0.63;;;20.40;72.10;;;;;;5070689;28;20052;-74
2022/09/22 04:20:32;;;;;;;1.35;0.80;;;20.40;72.10;;;;;;5071038;28;20047;-74
2022/09/22 04:22:57;;;;;;;1.00;0.82;;;20.40;72.10;;;;;;5085723;28;20008;-74
2022/09/22 04:25:23;;;;;;;1.75;0.80;;;20.40;72.10;;;;;;5111618;28;20024;-74
2022/09/22 04:27:49;;;;;;;2.78;0.93;;;20.40;72.10;;;;;;5094158;28;20403;-74
2022/09/22 04:30:14;;;;;;;0.60;0.60;;;20.40;72.10;;;;;;5112535;28;20019;-74
2022/09/22 04:32:40;;;;;;;1.13;0.80;;;20.40;72.10;;;;;;5112656;28;20381;-74
2022/09/22 04:35:06;;;;;;;1.05;0.85;;;20.40;72.20;;;;;;5111076;28;20042;-74
2022/09/22 04:37:32;;;;;;;1.77;0.90;;;20.40;72.20;;;;;;5111335;28;20422;-74
2022/09/22 04:39:58;;;;;;;1.15;0.70;;;20.40;72.20;;;;;;5112201;28;20030;-73
2022/09/22 04:42:24;;;;;;;1.02;0.77;;;20.40;72.20;;;;;;5112210;28;20016;-73
2022/09/22 04:44:50;;;;;;;1.75;0.70;;;20.40;72.20;;;;;;5112612;28;20395;-73
2022/09/22 04:47:15;;;;;;;0.75;0.60;;;20.40;72.40;;;;;;5110934;28;20175;-73
2022/09/22 04:49:41;;;;;;;1.42;0.75;;;20.40;72.40;;;;;;5111185;28;20047;-73
2022/09/22 04:52:07;;;;;;;0.70;0.70;;;20.40;72.40;;;;;;5112245;28;20024;-73
2022/09/22 04:54:32;;;;;;;0.73;0.73;;;20.40;72.50;;;;;;5094233;28;20502;-73
2022/09/22 04:56:58;;;;;;;9.93;0.90;;;20.40;72.50;;;;;;5111977;28;20030;-73
2022/09/22 04:59:24;;;;;;;1.48;0.80;;;20.40;72.50;;;;;;5111187;28;20019;-73
2022/09/22 05:01:49;;;;;;;0.70;0.70;;;20.40;72.60;;;;;;5112237;28;20028;-73
2022/09/22 05:04:15;;;;;;;2.03;0.90;;;20.40;72.50;;;;;;5112146;28;20103;-73
2022/09/22 05:06:41;;;;;;;0.80;0.80;;;20.40;72.50;;;;;;5112407;28;20024;-73
2022/09/22 05:09:07;;;;;;;1.27;0.90;;;20.40;72.50;;;;;;5110770;28;20497;-73
2022/09/22 05:11:33;;;;;;;2.55;1.00;;;20.40;72.50;;;;;;5110729;28;20024;-73
2022/09/22 05:13:58;;;;;;;1.15;1.00;;;20.40;72.50;;;;;;5112056;28;20024;-73
2022/09/22 05:16:24;;;;;;;3.33;0.80;;;20.40;72.60;;;;;;5084670;28;20070;-73
2022/09/22 05:18:50;;;;;;;3.60;1.00;;;20.40;72.60;;;;;;5070440;28;20024;-73
2022/09/22 05:21:17;;;;;;;2.55;0.82;;;20.40;72.70;;;;;;5070882;28;20048;-73
2022/09/22 05:23:43;;;;;;;1.65;0.82;;;20.40;72.70;;;;;;5101820;28;20020;-73
2022/09/22 05:26:09;;;;;;;7.93;1.00;;;20.40;72.70;;;;;;5115748;28;20463;-73
2022/09/22 05:28:35;;;;;;;2.58;0.80;;;20.40;72.60;;;;;;5115807;28;20063;-74
2022/09/22 05:31:01;;;;;;;2.00;0.98;;;20.30;72.60;;;;;;5115642;28;20057;-74
2022/09/22 05:33:26;;;;;;;2.42;1.00;;;20.30;72.50;;;;;;5114572;28;20024;-73
2022/09/22 05:35:52;;;;;;;2.17;0.85;;;20.40;72.70;;;;;;5115680;28;20046;-73
2022/09/22 05:38:17;;;;;;;2.00;0.80;;;20.40;72.70;;;;;;5115443;28;20023;-73
2022/09/22 05:40:46;;;;;;;4.88;0.80;;;20.40;72.70;;;;;;5115249;28;20027;-74
2022/09/22 05:43:12;;;;;;;1.98;0.93;;;20.40;72.80;;;;;;5115272;28;20027;-74
2022/09/22 05:45:37;;;;;;;3.20;1.00;;;20.40;72.70;;;;;;5114233;28;20028;-74
2022/09/22 05:48:03;;;;;;;1.35;0.70;;;20.40;72.70;;;;;;5107447;28;20498;-73
2022/09/22 05:50:29;;;;;;;1.30;0.77;;;20.40;72.70;;;;;;5093753;28;20104;-74
2022/09/22 05:53:05;;;;;;;1.40;0.73;;;20.40;72.70;;;;;;5094466;28;20050;-74
2022/09/22 05:55:31;;;;;;;1.15;1.00;;;20.40;72.60;;;;;;5093904;28;20035;-74
2022/09/22 05:57:56;;;;;;;0.98;0.60;;;20.40;72.70;;;;;;5076787;28;20035;-74
2022/09/22 06:00:22;;;;;;;2.42;1.10;;;20.40;72.70;;;;;;5094728;28;20020;-74
2022/09/22 06:02:48;;;;;;;2.58;0.98;;;20.30;72.60;;;;;;5094842;28;20361;-74
2022/09/22 06:05:13;;;;;;;3.45;0.90;;;20.40;72.70;;;;;;5094455;28;20495;-73
2022/09/22 06:07:39;;;;;;;1.15;0.77;;;20.40;72.60;;;;;;5076434;28;20024;-74
2022/09/22 06:10:05;;;;;;;0.95;0.77;;;20.30;72.60;;;;;;5094782;28;20035;-73
2022/09/22 06:12:31;;;;;;;3.95;0.90;;;20.30;72.60;;;;;;5093307;28;20024;-74
2022/09/22 06:14:56;;;;;;;3.00;0.80;;;20.30;72.60;;;;;;5091701;28;20529;-74
2022/09/22 06:17:22;;;;;;;1.70;0.80;;;20.40;72.60;;;;;;5074012;28;20167;-73
2022/09/22 06:19:49;;;;;;;3.55;1.05;;;20.30;72.60;;;;;;5073188;28;20112;-74
2022/09/22 06:22:15;;;;;;;0.90;0.70;;;20.30;72.50;;;;;;5075615;28;20013;-74
2022/09/22 06:24:42;;;;;;;2.00;1.00;;;20.30;72.50;;;;;;5113427;28;20024;-74
2022/09/22 06:27:07;;;;;;;1.05;0.80;;;20.30;72.50;;;;;;5114599;28;20015;-74
2022/09/22 06:29:33;;;;;;;0.70;0.70;;;20.30;72.50;;;;;;5114494;28;20038;-74
2022/09/22 06:31:58;;;;;;;0.73;0.73;;;20.30;73.50;;;;;;5113369;28;20027;-73
2022/09/22 06:34:26;;;;;;;0.95;0.70;;;20.30;72.50;;;;;;5112274;28;20024;-74
2022/09/22 06:36:54;;;;;;;1.27;0.60;;;20.30;72.50;;;;;;5113191;28;20024;-73
2022/09/22 06:39:21;;;;;;;1.17;0.68;;;20.30;72.50;;;;;;5114327;28;20099;-73
2022/09/22 06:41:47;;;;;;;2.08;1.00;;;20.30;72.50;;;;;;5096332;28;20094;-72
2022/09/22 06:44:14;;;;;;;0.80;0.70;;;20.30;71.70;;;;;;5114245;28;20031;-73
2022/09/22 06:46:40;;;;;;;1.48;0.70;;;20.30;71.30;;;;;;5113335;28;20387;-73
2022/09/22 06:49:06;;;;;;;2.33;1.00;;;20.30;71.80;;;;;;5112694;28;20053;-73
2022/09/22 06:51:33;;;;;;;1.67;0.70;;;20.30;71.90;;;;;;5095770;28;20048;-73
2022/09/22 06:54:02;;;;;;;1.92;0.88;;;20.30;71.90;;;;;;5112903;28;20507;-73
2022/09/22 06:56:29;;;;;;;4.95;0.73;;;20.30;71.90;;;;;;5096392;28;20038;-73
2022/09/22 06:58:55;;;;;;;1.50;0.85;;;20.30;72.00;;;;;;5112828;28;20016;-73
2022/09/22 07:01:22;;;;;;;1.02;0.57;;;20.30;72.10;;;;;;5112574;28;20080;-73
2022/09/22 07:03:48;;;;;;;2.10;0.90;;;20.30;72.10;;;;;;5112767;28;20020;-73
2022/09/22 07:06:17;;;;;;;2.45;1.10;;;20.30;72.00;;;;;;5095549;28;20028;-72
2022/09/22 07:08:43;;;;;;;1.85;1.08;;;20.10;66.10;;;;;;5112644;28;20023;-72
2022/09/22 07:11:09;;;;;;;3.47;1.20;;;19.90;63.90;;;;;;5113706;28;20028;-72
2022/09/22 07:13:38;;;;;;;7.95;1.50;;;19.70;62.80;;;;;;5095598;28;20019;-72
2022/09/22 07:16:08;;;;;;;5.75;1.48;;;19.50;62.40;;;;;;5091911;28;20032;-72
2022/09/22 07:18:34;;;;;;;3.90;1.50;;;19.40;61.80;;;;;;5072757;28;20356;-72
2022/09/22 07:21:11;;;;;;;3.05;1.00;;;19.30;61.70;;;;;;5071632;28;20024;-71
2022/09/22 07:23:36;;;;;;;2.50;1.55;;;19.30;61.50;;;;;;5096299;28;20020;-72
2022/09/22 07:26:16;;;;;;;1.58;1.20;;;19.20;61.00;;;;;;5112282;28;20027;-71
2022/09/22 07:28:42;;;;;;;1.70;1.30;;;19.20;61.10;;;;;;5066522;28;20072;-71
2022/09/22 07:31:13;;;;;;;3.92;1.00;;;19.20;61.20;;;;;;5071403;28;20103;-71
2022/09/22 07:33:41;;;;;;;3.05;1.30;;;19.10;60.80;;;;;;5085434;28;20028;-71
2022/09/22 07:36:17;;;;;;;1.98;0.95;;;19.10;60.60;;;;;;5091338;28;20024;-71
2022/09/22 07:38:45;;;;;;;2.28;1.30;;;19.00;60.70;;;;;;5076117;28;20016;-70
2022/09/22 07:41:16;;;;;;;4.05;1.10;;;19.00;60.60;;;;;;5092522;28;20445;-70
2022/09/22 07:43:42;;;;;;;1.10;1.00;;;19.00;60.80;;;;;;5091342;28;20143;-72
2022/09/22 07:46:08;;;;;;;3.28;1.05;;;19.00;61.00;;;;;;5092644;28;20119;-72
2022/09/22 07:48:34;;;;;;;2.63;1.45;;;19.00;61.20;;;;;;5092873;28;20107;-72
2022/09/22 07:51:00;;;;;;;2.38;0.90;;;18.90;61.20;;;;;;5078926;28;20645;-71
2022/09/22 07:53:26;;;;;;;2.67;1.10;;;18.90;61.20;;;;;;5086492;28;20551;-73
2022/09/22 07:55:52;;;;;;;2.70;0.95;;;18.90;61.10;;;;;;5090483;28;20032;-72
2022/09/22 07:58:17;;;;;;;2.00;1.27;;;18.90;61.20;;;;;;5076188;28;20025;-73
2022/09/22 08:00:43;;;;;;;4.85;1.30;;;18.90;61.00;;;;;;5083967;28;20029;-73
2022/09/22 08:03:09;;;;;;;6.95;1.55;;;18.90;60.70;;;;;;5083755;28;20088;-73
2022/09/22 08:05:35;;;;;;;4.43;1.38;;;18.90;60.90;;;;;;5082720;28;20016;-70
2022/09/22 08:08:02;;;;;;;3.97;1.30;;;18.90;61.40;;;;;;5084124;28;20028;-71
2022/09/22 08:10:28;;;;;;;6.05;1.02;;;18.90;61.20;;;;;;5083302;28;20098;-72
2022/09/22 08:12:55;;;;;;;3.05;1.10;;;18.80;60.90;;;;;;5083687;28;20457;-72
2022/09/22 08:15:22;;;;;;;1.85;1.13;;;18.80;61.00;;;;;;5081021;28;20057;-72
2022/09/22 08:17:49;;;;;;;4.18;1.00;;;18.80;61.20;;;;;;5083085;28;20070;-72
2022/09/22 08:20:15;;;;;;;2.85;1.00;;;18.80;61.00;;;;;;5083082;28;20012;-71
2022/09/22 08:22:42;;;;;;;4.72;1.60;;;18.80;61.50;;;;;;5082665;28;20446;-71
2022/09/22 08:25:11;;;;;;;3.00;1.00;;;18.80;61.50;;;;;;5084227;28;20038;-71
2022/09/22 08:27:38;;;;;;;3.33;1.13;;;18.80;61.50;;;;;;5084031;28;20032;-71
2022/09/22 08:30:04;;;;;;;3.50;0.70;;;18.80;61.50;;;;;;5083856;28;20021;-72
2022/09/22 08:32:30;;;;;;;2.50;0.90;;;18.80;61.70;;;;;;5082932;28;20048;-72
2022/09/22 08:34:56;;;;;;;5.15;1.30;;;18.80;61.90;;;;;;5084584;28;20040;-72
2022/09/22 08:37:23;;;;;;;1.05;0.95;;;18.80;62.10;;;;;;5083860;28;20032;-71
2022/09/22 08:39:49;;;;;;;2.80;1.13;;;18.80;62.00;;;;;;5084430;28;20016;-71
2022/09/22 08:42:19;;;;;;;1.50;0.93;;;18.80;61.90;;;;;;5083336;28;20069;-72
2022/09/22 08:44:53;;;;;;;8.90;1.10;;;18.80;61.90;;;;;;5086246;28;20020;-76
2022/09/22 08:51:50;;;;;;;1.63;0.70;;;18.90;62.80;;;;;;5083818;28;20499;-76
2022/09/22 08:53:14;;;;;;;2.95;0.70;;;19.20;64.00;;;;;;5086896;28;20076;-76
2022/09/22 08:55:41;;;;;;;1.92;0.65;;;19.30;63.60;;;;;;5090778;28;20024;-77
2022/09/22 08:58:22;;;;;;;0.70;0.70;;;19.40;63.50;;;;;;5062277;28;20028;-76
2022/09/22 09:01:26;;;;;;;1.02;0.70;;;19.50;63.60;;;;;;5077700;28;20016;-77
2022/09/22 09:04:10;;;;;;;0.70;0.70;;;19.50;63.60;;;;;;5072743;28;20060;-76
2022/09/22 09:06:45;;;;;;;1.13;0.70;;;19.70;63.60;;;;;;5074424;28;20029;-76
2022/09/22 09:09:23;;;;;;;1.17;0.70;;;19.70;63.60;;;;;;5075397;28;20504;-75
2022/09/22 09:12:14;;;;;;;0.82;0.50;;;19.80;63.60;;;;;;5078625;28;20424;-76
2022/09/22 09:14:52;;;;;;;2.53;0.80;;;19.80;63.40;;;;;;5094587;28;20028;-76
2022/09/22 09:17:26;;;;;;;0.95;0.60;;;19.80;63.30;;;;;;5073520;28;20500;-76
2022/09/22 09:20:00;;;;;;;1.58;0.52;;;19.90;63.30;;;;;;5087064;28;20030;-77
2022/09/22 09:22:33;;;;;;;1.63;0.95;;;20.00;63.20;;;;;;5079183;28;20100;-76
2022/09/22 09:25:08;;;;;;;0.85;0.80;;;20.00;63.20;;;;;;5098464;28;20035;-76
2022/09/22 09:27:37;;;;;;;0.73;0.50;;;20.00;63.20;;;;;;5089169;28;20122;-77
2022/09/22 09:30:05;;;;;;;2.65;0.70;;;20.00;63.20;;;;;;5095407;28;20535;-77
2022/09/22 09:32:35;;;;;;;1.55;0.77;;;20.10;63.20;;;;;;5093581;28;20028;-77
2022/09/22 09:35:01;;;;;;;0.93;0.50;;;20.10;63.20;;;;;;5094041;28;20544;-77
2022/09/22 09:37:27;;;;;;;2.72;0.93;;;20.20;63.20;;;;;;5093900;28;20028;-77
2022/09/22 09:39:53;;;;;;;2.70;0.90;;;20.20;63.10;;;;;;5093727;28;20498;-77
2022/09/22 09:42:23;;;;;;;1.85;1.17;;;20.20;63.10;;;;;;5093834;28;20016;-72
2022/09/22 09:44:52;;;;;;;3.03;0.60;;;20.20;63.10;;;;;;5089940;28;20049;-73
2022/09/22 09:47:50;;;;;;;3.67;0.65;;;20.30;63.10;;;;;;5074638;28;20025;-73
2022/09/22 09:50:16;;;;;;;0.63;0.63;;;20.30;63.20;;;;;;5074449;28;20106;-73
2022/09/22 09:52:41;;;;;;;1.48;0.60;;;20.30;63.00;;;;;;5069430;28;20032;-72
2022/09/22 09:55:24;;;;;;;0.95;0.80;;;20.30;63.00;;;;;;5093433;28;20107;-72
2022/09/22 10:00:29;;;;;;;;;;;20.40;63.00;;;;;;5087750;28;20028;-73
2022/09/22 10:01:01;;;;;;;1.83;0.57;;;20.40;63.10;;;;;;5075724;28;19962;-73
2022/09/22 10:03:34;;;;;;;0.63;0.40;;;20.40;63.10;;;;;;5076837;28;20013;-74
2022/09/22 10:06:06;;;;;;;0.70;0.65;;;20.30;63.30;;;;;;5058706;28;20021;-72
2022/09/22 10:08:35;;;;;;;0.60;0.60;;;20.40;63.40;;;;;;5071638;28;20031;-72
2022/09/22 10:11:01;;;;;;;1.17;0.45;;;20.50;63.20;;;;;;5073161;28;20028;-72
2022/09/22 10:13:39;;;;;;;0.93;0.60;;;20.50;63.10;;;;;;5072917;28;20153;-72
2022/09/22 10:16:20;;;;;;;0.47;0.47;;;20.60;63.20;;;;;;5072619;28;20019;-73
2022/09/22 10:18:46;;;;;;;0.95;0.50;;;20.60;63.10;;;;;;5078332;28;20429;-73
2022/09/22 10:21:22;;;;;;;0.40;0.40;;;20.60;64.10;;;;;;5096578;28;20019;-73
2022/09/22 10:23:57;;;;;;;0.60;0.50;;;20.60;63.00;;;;;;5082576;28;20054;-73
2022/09/22 10:26:25;;;;;;;0.73;0.50;;;20.70;63.10;;;;;;5084013;28;20024;-73
2022/09/22 10:29:17;;;;;;;0.90;0.45;;;20.70;62.90;;;;;;5072609;28;20028;-73
2022/09/22 10:32:02;;;;;;;0.50;0.40;;;20.70;62.90;;;;;;5072494;28;20036;-73
2022/09/22 10:34:30;;;;;;;0.70;0.52;;;20.80;63.00;;;;;;5072614;28;20021;-73
2022/09/22 10:36:56;;;;;;;0.50;0.50;;;20.80;62.80;;;;;;5073608;28;20039;-72
2022/09/22 10:39:31;;;;;;;1.08;0.60;;;20.90;62.90;;;;;;5073572;28;20017;-72
2022/09/22 10:41:57;;;;;;;0.50;0.40;;;20.90;62.70;;;;;;5066772;28;20396;-73
2022/09/22 10:44:24;;;;;;;0.75;0.43;;;20.90;62.90;;;;;;5084699;28;20024;-73
2022/09/22 10:47:32;;;;;;;0.70;0.55;;;20.80;63.10;;;;;;5084648;28;20016;-71
2022/09/22 10:50:27;;;;;;;0.85;0.40;;;20.80;63.20;;;;;;5044675;28;20132;-72
2022/09/22 10:52:58;;;;;;;1.13;0.50;;;20.80;62.80;;;;;;5034009;28;20029;-72
2022/09/22 10:55:24;;;;;;;0.85;0.47;;;20.70;63.20;;;;;;5044467;28;20123;-71
2022/09/22 10:58:07;;;;;;;1.02;0.60;;;20.70;63.20;;;;;;5045688;28;20540;-71
2022/09/22 11:00:37;;;;;;;1.00;0.70;;;20.70;63.50;;;;;;5044208;28;20071;-71
2022/09/22 11:03:51;;;;;;;0.65;0.50;;;20.60;63.50;;;;;;5026575;28;20536;-71
2022/09/22 11:12:22;;;;;;;0.80;0.60;;;20.60;63.80;;;;;;5044087;28;20035;-71
2022/09/22 11:14:51;;;;;;;0.75;0.57;;;20.60;63.90;;;;;;5031696;28;20043;-71
2022/09/22 11:17:20;;;;;;;0.95;0.60;;;20.60;63.90;;;;;;5045368;28;20036;-71
2022/09/22 11:20:12;;;;;;;0.50;0.50;;;20.60;63.80;;;;;;5050506;28;20025;-71
2022/09/22 11:22:50;;;;;;;0.70;0.60;;;20.60;63.70;;;;;;5086688;28;20032;-71
2022/09/22 11:25:29;;;;;;;0.73;0.73;;;20.70;63.70;;;;;;5087376;28;20678;-71
2022/09/22 11:28:19;;;;;;;0.80;0.80;;;20.70;63.80;;;;;;5087691;28;20062;-72
2022/09/22 11:30:48;;;;;;;0.95;0.85;;;20.70;64.00;;;;;;5076156;28;20051;-72
2022/09/22 11:33:26;;;;;;;1.13;0.80;;;20.70;64.20;;;;;;5069831;28;20033;-71
2022/09/22 11:36:32;;;;;;;1.60;1.08;;;20.70;64.40;;;;;;5071012;28;20027;-71
2022/09/22 11:39:10;;;;;;;1.10;1.00;;;20.70;64.90;;;;;;5040032;28;20036;-71
2022/09/22 11:41:41;;;;;;;1.58;1.20;;;20.70;65.20;;;;;;5072689;28;20051;-71
2022/09/22 11:44:24;;;;;;;3.67;1.67;;;20.70;65.40;;;;;;5069871;28;20055;-71
2022/09/22 11:47:25;;;;;;;14.57;6.55;;;20.80;65.40;;;;;;5071274;28;20065;-71
2022/09/22 11:50:09;;;;;;;68.38;26.25;;;20.80;65.90;;;;;;5056844;28;20059;-71
2022/09/22 11:52:45;;;;;;;54.83;22.55;;;20.80;66.20;;;;;;5076764;28;20028;-71
2022/09/22 11:55:25;;;;;;;71.32;32.15;;;20.80;66.10;;;;;;5077114;28;20476;-71
2022/09/22 11:57:54;;;;;;;77.22;35.40;;;20.80;67.20;;;;;;5093733;28;20475;-71
2022/09/22 12:00:20;;;;;;;85.22;39.33;;;20.80;66.20;;;;;;5078948;28;20046;-71
2022/09/22 12:02:59;;;;;;;92.18;41.67;;;20.80;66.20;;;;;;5078435;28;20020;-71
2022/09/22 12:05:29;;;;;;;99.03;45.13;;;20.80;66.30;;;;;;5080147;28;20016;-71
2022/09/22 12:08:09;;;;;;;107.70;46.97;;;20.80;66.40;;;;;;5076999;28;20400;-70
2022/09/22 12:10:39;;;;;;;118.68;53.17;;;20.80;66.50;;;;;;5081914;28;20024;-72
2022/09/22 12:13:19;;;;;;;119.40;50.75;;;20.80;66.50;;;;;;5072627;28;20066;-71
2022/09/22 12:16:09;;;;;;;116.20;52.80;;;20.80;66.40;;;;;;5072028;28;20471;-70
2022/09/22 12:19:04;;;;;;;119.78;54.15;;;20.90;66.40;;;;;;5070828;28;20492;-70
2022/09/22 12:21:54;;;;;;;137.15;62.33;;;20.80;66.40;;;;;;5077365;28;20021;-72
2022/09/22 12:24:20;;;;;;;128.50;58.05;;;20.90;66.80;;;;;;5083474;28;20028;-72
2022/09/22 12:26:48;;;;;;;145.38;64.22;;;20.90;66.30;;;;;;5084211;28;20024;-72
2022/09/22 12:29:13;;;;;;;154.45;70.60;;;21.00;66.20;;;;;;5073330;28;20020;-72
2022/09/22 12:31:43;;;;;;;140.02;66.80;;;21.10;66.20;;;;;;5093474;28;20028;-72
2022/09/22 12:34:30;;;;;;;145.18;68.72;;;21.20;66.10;;;;;;5078639;28;20020;-72
2022/09/22 12:36:58;;;;;;;142.32;70.03;;;21.20;66.00;;;;;;5096184;28;20028;-72
2022/09/22 12:39:25;;;;;;;140.60;65.05;;;21.20;65.80;;;;;;5094669;28;20017;-72
2022/09/22 12:41:55;;;;;;;142.70;69.43;;;21.20;65.80;;;;;;5095960;28;20028;-72
2022/09/22 12:44:23;;;;;;;141.82;69.20;;;21.30;65.80;;;;;;5093688;28;20063;-72
2022/09/22 12:46:49;;;;;;;148.30;65.63;;;21.40;65.80;;;;;;5086206;28;20115;-72
2022/09/22 12:49:17;;;;;;;135.80;64.40;;;21.40;65.60;;;;;;5077857;28;20478;-72
2022/09/22 12:51:44;;;;;;;144.32;65.38;;;21.40;65.50;;;;;;5074216;28;20020;-72
2022/09/22 12:54:22;;;;;;;146.10;69.03;;;21.50;65.40;;;;;;5085574;28;20021;-72
2022/09/22 12:57:00;;;;;;;143.95;66.70;;;21.50;65.30;;;;;;5075606;28;20020;-72
2022/09/22 12:59:35;;;;;;;138.82;64.80;;;21.50;65.40;;;;;;5075729;28;20029;-71
2022/09/22 13:02:16;;;;;;;141.98;65.78;;;21.60;65.30;;;;;;5086970;28;20103;-71
2022/09/22 13:05:03;;;;;;;132.85;64.57;;;21.60;65.20;;;;;;5095978;28;20039;-72
2022/09/22 13:07:41;;;;;;;134.63;62.55;;;21.60;65.00;;;;;;5033331;28;20072;-72
2022/09/22 13:10:22;;;;;;;133.43;62.20;;;21.70;65.00;;;;;;5016747;28;20401;-73
2022/09/22 13:13:05;;;;;;;130.60;62.20;;;21.70;64.90;;;;;;5033202;28;20080;-72